sensor_id;sensor_type;location;lat;lon;timestamp;pressure;altitude;pressure_sealevel;temperature;humidity
47897;BME280;39629;51.400;5.494;2023-03-23T00:03:09;100120.41;;;11.09;100.00
47897;BME280;39629;51.400;5.494;2023-03-23T00:08:11;100108.81;;;11.21;100.00
47897;BME280;39629;51.400;5.494;2023-03-23T00:13:15;100098.09;;;11.32;100.00
47897;BME280;39629;51.400;5.494;2023-03-23T00:18:21;100112.88;;;11.40;100.00
47897;BME280;39629;51.400;5.494;2023-03-23T00:23:24;100093.38;;;11.49;100.00
47897;BME280;39629;51.400;5.494;2023-03-23T00:28:26;100111.78;;;11.52;100.00
47897;BME280;39629;51.400;5.494;2023-03-23T00:33:31;100109.50;;;11.32;100.00
47897;BME280;39629;51.400;5.494;2023-03-23T00:38:39;100089.13;;;11.42;100.00
47897;BME280;39629;51.400;5.494;2023-03-23T00:43:41;100109.44;;;11.35;100.00
47897;BME280;39629;51.400;5.494;2023-03-23T00:48:45;100092.84;;;11.32;100.00
47897;BME280;39629;51.400;5.494;2023-03-23T00:53:47;100094.53;;;11.36;100.00
47897;BME280;39629;51.400;5.494;2023-03-23T00:58:48;100092.38;;;11.55;100.00
47897;BME280;39629;51.400;5.494;2023-03-23T01:03:51;100092.31;;;11.59;100.00
47897;BME280;39629;51.400;5.494;2023-03-23T01:09:02;100096.91;;;11.50;100.00
47897;BME280;39629;51.400;5.494;2023-03-23T01:14:04;100082.81;;;11.52;100.00
47897;BME280;39629;51.400;5.494;2023-03-23T01:19:07;100069.56;;;11.55;100.00
47897;BME280;39629;51.400;5.494;2023-03-23T01:24:09;100069.66;;;11.51;100.00
47897;BME280;39629;51.400;5.494;2023-03-23T01:29:11;100055.56;;;11.52;100.00
47897;BME280;39629;51.400;5.494;2023-03-23T01:34:14;100057.66;;;11.34;100.00
47897;BME280;39629;51.400;5.494;2023-03-23T01:39:15;100057.56;;;11.39;100.00
47897;BME280;39629;51.400;5.494;2023-03-23T01:49:58;100054.06;;;11.40;100.00
47897;BME280;39629;51.400;5.494;2023-03-23T01:55:00;100066.31;;;11.41;100.00
47897;BME280;39629;51.400;5.494;2023-03-23T02:00:05;100047.59;;;11.56;100.00
47897;BME280;39629;51.400;5.494;2023-03-23T02:05:21;100036.94;;;11.61;100.00
47897;BME280;39629;51.400;5.494;2023-03-23T02:10:24;100029.66;;;11.74;100.00
47897;BME280;39629;51.400;5.494;2023-03-23T02:15:34;100010.97;;;11.43;100.00
47897;BME280;39629;51.400;5.494;2023-03-23T02:21:03;100020.31;;;11.57;100.00
47897;BME280;39629;51.400;5.494;2023-03-23T02:26:18;100009.66;;;11.64;100.00
47897;BME280;39629;51.400;5.494;2023-03-23T02:31:32;100022.91;;;11.61;100.00
47897;BME280;39629;51.400;5.494;2023-03-23T02:36:45;100017.34;;;11.74;100.00
47897;BME280;39629;51.400;5.494;2023-03-23T02:41:52;99996.94;;;11.84;100.00
47897;BME280;39629;51.400;5.494;2023-03-23T02:46:56;100008.56;;;11.74;100.00
47897;BME280;39629;51.400;5.494;2023-03-23T02:52:02;100005.19;;;11.67;100.00
47897;BME280;39629;51.400;5.494;2023-03-23T02:57:07;100007.03;;;11.64;100.00
47897;BME280;39629;51.400;5.494;2023-03-23T03:02:14;100012.22;;;11.67;100.00
47897;BME280;39629;51.400;5.494;2023-03-23T03:07:39;100005.25;;;11.64;100.00
47897;BME280;39629;51.400;5.494;2023-03-23T03:12:55;100012.88;;;11.78;100.00
47897;BME280;39629;51.400;5.494;2023-03-23T03:18:05;100010.50;;;11.66;100.00
47897;BME280;39629;51.400;5.494;2023-03-23T03:23:11;100008.66;;;11.69;100.00
47897;BME280;39629;51.400;5.494;2023-03-23T03:28:19;100012.09;;;11.73;100.00
47897;BME280;39629;51.400;5.494;2023-03-23T03:33:24;100001.53;;;11.73;100.00
47897;BME280;39629;51.400;5.494;2023-03-23T03:38:29;100007.81;;;11.69;100.00
47897;BME280;39629;51.400;5.494;2023-03-23T03:43:41;100007.66;;;11.75;100.00
47897;BME280;39629;51.400;5.494;2023-03-23T03:48:44;100010.41;;;11.70;100.00
47897;BME280;39629;51.400;5.494;2023-03-23T03:53:47;100013.22;;;11.61;100.00
47897;BME280;39629;51.400;5.494;2023-03-23T03:58:49;100018.41;;;11.66;100.00
47897;BME280;39629;51.400;5.494;2023-03-23T04:04:09;100029.50;;;11.82;100.00
47897;BME280;39629;51.400;5.494;2023-03-23T04:09:13;100032.53;;;11.62;100.00
47897;BME280;39629;51.400;5.494;2023-03-23T04:14:15;100019.47;;;11.57;100.00
47897;BME280;39629;51.400;5.494;2023-03-23T04:19:19;100020.22;;;11.64;100.00
47897;BME280;39629;51.400;5.494;2023-03-23T04:24:22;100030.00;;;11.57;100.00
47897;BME280;39629;51.400;5.494;2023-03-23T04:29:25;100025.56;;;11.61;100.00
47897;BME280;39629;51.400;5.494;2023-03-23T04:34:52;100036.81;;;11.67;100.00
47897;BME280;39629;51.400;5.494;2023-03-23T04:40:02;100048.31;;;11.65;100.00
47897;BME280;39629;51.400;5.494;2023-03-23T04:45:09;100048.34;;;11.62;100.00
47897;BME280;39629;51.400;5.494;2023-03-23T04:50:13;100047.84;;;11.41;100.00
47897;BME280;39629;51.400;5.494;2023-03-23T04:55:18;100044.88;;;11.59;100.00
47897;BME280;39629;51.400;5.494;2023-03-23T05:00:27;100050.22;;;11.56;100.00
47897;BME280;39629;51.400;5.494;2023-03-23T05:05:30;100051.00;;;11.60;100.00
47897;BME280;39629;51.400;5.494;2023-03-23T05:10:37;100048.47;;;11.55;100.00
47897;BME280;39629;51.400;5.494;2023-03-23T05:15:43;100057.97;;;11.64;100.00
47897;BME280;39629;51.400;5.494;2023-03-23T05:20:45;100050.38;;;11.49;100.00
47897;BME280;39629;51.400;5.494;2023-03-23T05:25:54;100040.84;;;11.41;100.00
47897;BME280;39629;51.400;5.494;2023-03-23T05:30:57;100048.66;;;11.46;100.00
47897;BME280;39629;51.400;5.494;2023-03-23T05:36:04;100056.63;;;11.43;100.00
47897;BME280;39629;51.400;5.494;2023-03-23T05:41:21;100067.06;;;11.48;100.00
47897;BME280;39629;51.400;5.494;2023-03-23T05:46:24;100055.72;;;11.44;100.00
47897;BME280;39629;51.400;5.494;2023-03-23T05:51:30;100074.25;;;11.39;100.00
47897;BME280;39629;51.400;5.494;2023-03-23T05:56:33;100064.69;;;11.34;100.00
47897;BME280;39629;51.400;5.494;2023-03-23T06:01:58;100067.56;;;11.20;100.00
47897;BME280;39629;51.400;5.494;2023-03-23T06:07:00;100075.34;;;11.28;100.00
47897;BME280;39629;51.400;5.494;2023-03-23T06:12:04;100065.78;;;11.22;100.00
47897;BME280;39629;51.400;5.494;2023-03-23T06:17:29;100070.13;;;11.24;100.00
47897;BME280;39629;51.400;5.494;2023-03-23T06:22:31;100087.38;;;11.41;100.00
47897;BME280;39629;51.400;5.494;2023-03-23T06:27:48;100094.38;;;11.42;100.00
47897;BME280;39629;51.400;5.494;2023-03-23T06:32:49;100105.81;;;11.43;100.00
47897;BME280;39629;51.400;5.494;2023-03-23T06:38:02;100112.00;;;11.40;100.00
47897;BME280;39629;51.400;5.494;2023-03-23T06:43:19;100101.41;;;11.43;100.00
47897;BME280;39629;51.400;5.494;2023-03-23T06:48:30;100118.03;;;11.47;100.00
47897;BME280;39629;51.400;5.494;2023-03-23T06:53:33;100124.19;;;11.46;100.00
47897;BME280;39629;51.400;5.494;2023-03-23T06:58:36;100134.06;;;11.34;100.00
47897;BME280;39629;51.400;5.494;2023-03-23T07:03:39;100124.44;;;11.32;100.00
47897;BME280;39629;51.400;5.494;2023-03-23T07:08:42;100112.13;;;11.32;100.00
47897;BME280;39629;51.400;5.494;2023-03-23T07:13:49;100124.31;;;11.38;100.00
47897;BME280;39629;51.400;5.494;2023-03-23T07:18:53;100127.88;;;11.37;100.00
47897;BME280;39629;51.400;5.494;2023-03-23T07:23:54;100133.16;;;11.34;100.00
47897;BME280;39629;51.400;5.494;2023-03-23T07:29:18;100134.84;;;11.38;100.00
47897;BME280;39629;51.400;5.494;2023-03-23T07:34:25;100129.69;;;11.33;100.00
47897;BME280;39629;51.400;5.494;2023-03-23T07:39:37;100131.28;;;11.42;100.00
47897;BME280;39629;51.400;5.494;2023-03-23T07:44:41;100162.25;;;11.29;100.00
47897;BME280;39629;51.400;5.494;2023-03-23T07:49:46;100216.41;;;10.16;100.00
47897;BME280;39629;51.400;5.494;2023-03-23T07:55:03;100193.19;;;9.71;100.00
47897;BME280;39629;51.400;5.494;2023-03-23T08:00:21;100193.22;;;9.73;100.00
47897;BME280;39629;51.400;5.494;2023-03-23T08:05:27;100208.13;;;9.68;100.00
47897;BME280;39629;51.400;5.494;2023-03-23T08:10:55;100221.31;;;9.62;100.00
47897;BME280;39629;51.400;5.494;2023-03-23T08:16:17;100236.19;;;9.64;100.00
47897;BME280;39629;51.400;5.494;2023-03-23T08:21:37;100250.19;;;9.68;100.00
47897;BME280;39629;51.400;5.494;2023-03-23T08:26:52;100255.41;;;9.71;100.00
47897;BME280;39629;51.400;5.494;2023-03-23T08:32:05;100257.97;;;9.77;100.00
47897;BME280;39629;51.400;5.494;2023-03-23T08:37:19;100254.44;;;9.83;100.00
47897;BME280;39629;51.400;5.494;2023-03-23T08:42:29;100256.19;;;9.79;100.00
47897;BME280;39629;51.400;5.494;2023-03-23T08:47:45;100276.16;;;9.99;100.00
47897;BME280;39629;51.400;5.494;2023-03-23T08:53:19;100267.44;;;9.94;100.00
47897;BME280;39629;51.400;5.494;2023-03-23T08:58:22;100238.59;;;9.87;100.00
47897;BME280;39629;51.400;5.494;2023-03-23T09:03:44;100245.53;;;9.96;100.00
47897;BME280;39629;51.400;5.494;2023-03-23T09:09:01;100265.56;;;10.10;100.00
47897;BME280;39629;51.400;5.494;2023-03-23T09:14:07;100268.25;;;10.02;100.00
47897;BME280;39629;51.400;5.494;2023-03-23T09:19:11;100271.13;;;9.74;100.00
47897;BME280;39629;51.400;5.494;2023-03-23T09:24:12;100269.41;;;9.71;100.00
47897;BME280;39629;51.400;5.494;2023-03-23T09:29:14;100264.16;;;9.70;100.00
47897;BME280;39629;51.400;5.494;2023-03-23T09:34:18;100262.41;;;9.72;100.00
47897;BME280;39629;51.400;5.494;2023-03-23T09:39:19;100268.56;;;9.69;100.00
47897;BME280;39629;51.400;5.494;2023-03-23T09:44:28;100274.28;;;10.15;100.00
47897;BME280;39629;51.400;5.494;2023-03-23T09:49:37;100277.50;;;11.12;100.00
47897;BME280;39629;51.400;5.494;2023-03-23T09:54:43;100273.97;;;11.14;100.00
47897;BME280;39629;51.400;5.494;2023-03-23T09:59:51;100270.16;;;11.34;100.00
47897;BME280;39629;51.400;5.494;2023-03-23T10:04:58;100274.06;;;11.64;100.00
47897;BME280;39629;51.400;5.494;2023-03-23T10:10:02;100265.28;;;12.15;100.00
47897;BME280;39629;51.400;5.494;2023-03-23T10:15:12;100276.47;;;12.75;100.00
47897;BME280;39629;51.400;5.494;2023-03-23T10:20:22;100273.50;;;13.29;100.00
47897;BME280;39629;51.400;5.494;2023-03-23T10:25:31;100280.66;;;12.84;100.00
47897;BME280;39629;51.400;5.494;2023-03-23T10:30:37;100277.34;;;13.16;100.00
47897;BME280;39629;51.400;5.494;2023-03-23T10:35:44;100288.41;;;14.06;100.00
47897;BME280;39629;51.400;5.494;2023-03-23T10:40:49;100281.78;;;13.89;100.00
47897;BME280;39629;51.400;5.494;2023-03-23T10:45:58;100280.69;;;13.98;100.00
47897;BME280;39629;51.400;5.494;2023-03-23T10:51:10;100276.03;;;13.72;100.00
47897;BME280;39629;51.400;5.494;2023-03-23T10:56:22;100277.41;;;13.88;100.00
47897;BME280;39629;51.400;5.494;2023-03-23T11:01:30;100272.09;;;13.90;100.00
47897;BME280;39629;51.400;5.494;2023-03-23T11:06:33;100268.63;;;13.86;100.00
47897;BME280;39629;51.400;5.494;2023-03-23T11:11:42;100272.47;;;13.73;100.00
47897;BME280;39629;51.400;5.494;2023-03-23T11:16:45;100280.75;;;13.95;100.00
47897;BME280;39629;51.400;5.494;2023-03-23T11:21:50;100282.97;;;13.76;100.00
47897;BME280;39629;51.400;5.494;2023-03-23T11:26:53;100274.59;;;13.94;100.00
47897;BME280;39629;51.400;5.494;2023-03-23T11:32:03;100282.78;;;14.51;100.00
47897;BME280;39629;51.400;5.494;2023-03-23T11:37:12;100280.28;;;15.08;100.00
47897;BME280;39629;51.400;5.494;2023-03-23T11:42:20;100283.72;;;15.10;100.00
47897;BME280;39629;51.400;5.494;2023-03-23T11:47:27;100290.13;;;15.03;100.00
47897;BME280;39629;51.400;5.494;2023-03-23T11:52:39;100291.81;;;15.05;100.00
47897;BME280;39629;51.400;5.494;2023-03-23T11:57:43;100285.34;;;14.86;100.00
47897;BME280;39629;51.400;5.494;2023-03-23T12:02:50;100286.22;;;15.44;100.00
47897;BME280;39629;51.400;5.494;2023-03-23T12:08:11;100275.94;;;15.05;100.00
47897;BME280;39629;51.400;5.494;2023-03-23T12:13:28;100265.06;;;14.85;100.00
47897;BME280;39629;51.400;5.494;2023-03-23T12:18:37;100270.09;;;14.94;100.00
47897;BME280;39629;51.400;5.494;2023-03-23T12:23:50;100267.44;;;15.52;100.00
47897;BME280;39629;51.400;5.494;2023-03-23T12:29:16;100266.53;;;15.25;100.00
47897;BME280;39629;51.400;5.494;2023-03-23T12:34:29;100244.88;;;15.92;100.00
47897;BME280;39629;51.400;5.494;2023-03-23T12:39:49;100263.69;;;15.84;100.00
47897;BME280;39629;51.400;5.494;2023-03-23T12:44:53;100231.19;;;16.30;100.00
47897;BME280;39629;51.400;5.494;2023-03-23T12:50:00;100234.06;;;16.71;100.00
47897;BME280;39629;51.400;5.494;2023-03-23T12:55:14;100225.72;;;16.34;100.00
47897;BME280;39629;51.400;5.494;2023-03-23T13:00:22;100233.97;;;16.00;100.00
47897;BME280;39629;51.400;5.494;2023-03-23T13:05:38;100237.09;;;15.86;100.00
47897;BME280;39629;51.400;5.494;2023-03-23T13:10:45;100236.81;;;15.95;100.00
47897;BME280;39629;51.400;5.494;2023-03-23T13:15:56;100233.06;;;15.76;100.00
47897;BME280;39629;51.400;5.494;2023-03-23T13:21:05;100221.63;;;15.99;100.00
47897;BME280;39629;51.400;5.494;2023-03-23T13:26:13;100203.75;;;16.29;100.00
47897;BME280;39629;51.400;5.494;2023-03-23T13:31:17;100209.72;;;16.11;100.00
47897;BME280;39629;51.400;5.494;2023-03-23T13:36:29;100220.28;;;15.87;100.00
47897;BME280;39629;51.400;5.494;2023-03-23T13:41:33;100202.41;;;16.17;100.00
47897;BME280;39629;51.400;5.494;2023-03-23T13:46:34;100204.06;;;15.95;100.00
47897;BME280;39629;51.400;5.494;2023-03-23T13:51:51;100201.41;;;15.70;100.00
47897;BME280;39629;51.400;5.494;2023-03-23T13:56:56;100197.72;;;15.74;100.00
47897;BME280;39629;51.400;5.494;2023-03-23T14:02:30;100200.53;;;15.44;100.00
47897;BME280;39629;51.400;5.494;2023-03-23T14:07:51;100239.63;;;15.37;100.00
47897;BME280;39629;51.400;5.494;2023-03-23T14:12:54;100232.63;;;14.15;100.00
47897;BME280;39629;51.400;5.494;2023-03-23T14:17:56;100223.91;;;14.73;100.00
47897;BME280;39629;51.400;5.494;2023-03-23T14:22:58;100212.22;;;14.50;100.00
47897;BME280;39629;51.400;5.494;2023-03-23T14:28:01;100215.34;;;14.33;100.00
47897;BME280;39629;51.400;5.494;2023-03-23T14:33:04;100206.75;;;14.56;100.00
47897;BME280;39629;51.400;5.494;2023-03-23T14:38:14;100187.97;;;14.34;100.00
47897;BME280;39629;51.400;5.494;2023-03-23T14:43:21;100178.25;;;14.03;100.00
47897;BME280;39629;51.400;5.494;2023-03-23T14:48:23;100179.63;;;13.84;100.00
47897;BME280;39629;51.400;5.494;2023-03-23T14:53:31;100159.03;;;13.63;100.00
47897;BME280;39629;51.400;5.494;2023-03-23T14:58:34;100173.00;;;13.67;100.00
47897;BME280;39629;51.400;5.494;2023-03-23T15:03:37;100183.22;;;13.83;100.00
47897;BME280;39629;51.400;5.494;2023-03-23T15:08:41;100186.66;;;13.50;100.00
47897;BME280;39629;51.400;5.494;2023-03-23T15:13:45;100190.38;;;13.43;100.00
47897;BME280;39629;51.400;5.494;2023-03-23T15:18:50;100175.41;;;13.42;100.00
47897;BME280;39629;51.400;5.494;2023-03-23T15:23:53;100154.38;;;13.39;100.00
47897;BME280;39629;51.400;5.494;2023-03-23T15:29:18;100127.34;;;13.27;100.00
47897;BME280;39629;51.400;5.494;2023-03-23T15:34:27;100127.44;;;13.24;100.00
47897;BME280;39629;51.400;5.494;2023-03-23T15:39:31;100130.59;;;13.03;100.00
47897;BME280;39629;51.400;5.494;2023-03-23T15:44:34;100142.34;;;12.89;100.00
47897;BME280;39629;51.400;5.494;2023-03-23T15:49:36;100143.03;;;12.98;100.00
47897;BME280;39629;51.400;5.494;2023-03-23T15:54:38;100158.88;;;12.98;100.00
47897;BME280;39629;51.400;5.494;2023-03-23T15:59:41;100156.13;;;13.04;100.00
47897;BME280;39629;51.400;5.494;2023-03-23T16:04:42;100145.28;;;13.15;100.00
47897;BME280;39629;51.400;5.494;2023-03-23T16:09:44;100145.81;;;13.29;100.00
47897;BME280;39629;51.400;5.494;2023-03-23T16:14:47;100155.56;;;13.25;100.00
47897;BME280;39629;51.400;5.494;2023-03-23T16:19:49;100153.22;;;13.15;100.00
47897;BME280;39629;51.400;5.494;2023-03-23T16:24:50;100167.06;;;13.23;100.00
47897;BME280;39629;51.400;5.494;2023-03-23T16:29:53;100182.38;;;13.10;100.00
47897;BME280;39629;51.400;5.494;2023-03-23T16:34:56;100169.41;;;13.35;100.00
47897;BME280;39629;51.400;5.494;2023-03-23T16:39:58;100172.28;;;13.27;100.00
47897;BME280;39629;51.400;5.494;2023-03-23T16:45:01;100164.44;;;13.24;100.00
47897;BME280;39629;51.400;5.494;2023-03-23T16:50:05;100162.75;;;13.20;100.00
47897;BME280;39629;51.400;5.494;2023-03-23T16:55:09;100154.88;;;13.19;100.00
47897;BME280;39629;51.400;5.494;2023-03-23T17:00:15;100140.19;;;13.07;100.00
47897;BME280;39629;51.400;5.494;2023-03-23T17:05:20;100137.78;;;12.96;100.00
47897;BME280;39629;51.400;5.494;2023-03-23T17:10:23;100143.44;;;12.81;100.00
47897;BME280;39629;51.400;5.494;2023-03-23T17:15:27;100148.66;;;12.84;100.00
47897;BME280;39629;51.400;5.494;2023-03-23T17:20:29;100137.25;;;12.82;100.00
47897;BME280;39629;51.400;5.494;2023-03-23T17:25:31;100140.59;;;12.90;100.00
47897;BME280;39629;51.400;5.494;2023-03-23T17:30:34;100125.53;;;12.93;100.00
47897;BME280;39629;51.400;5.494;2023-03-23T17:35:36;100121.22;;;12.89;100.00
47897;BME280;39629;51.400;5.494;2023-03-23T17:40:38;100116.13;;;12.82;100.00
47897;BME280;39629;51.400;5.494;2023-03-23T17:45:41;100128.31;;;12.87;100.00
47897;BME280;39629;51.400;5.494;2023-03-23T17:50:45;100121.31;;;12.86;100.00
47897;BME280;39629;51.400;5.494;2023-03-23T17:55:47;100126.97;;;13.07;100.00
47897;BME280;39629;51.400;5.494;2023-03-23T18:00:50;100132.59;;;12.93;100.00
47897;BME280;39629;51.400;5.494;2023-03-23T18:05:57;100119.19;;;13.02;100.00
47897;BME280;39629;51.400;5.494;2023-03-23T18:10:59;100114.16;;;12.91;100.00
47897;BME280;39629;51.400;5.494;2023-03-23T18:16:04;100100.91;;;12.93;100.00
47897;BME280;39629;51.400;5.494;2023-03-23T18:21:07;100112.47;;;12.87;100.00
47897;BME280;39629;51.400;5.494;2023-03-23T18:26:12;100092.94;;;12.94;100.00
47897;BME280;39629;51.400;5.494;2023-03-23T18:31:17;100089.53;;;12.89;100.00
47897;BME280;39629;51.400;5.494;2023-03-23T18:36:21;100079.00;;;12.88;100.00
47897;BME280;39629;51.400;5.494;2023-03-23T18:41:24;100077.28;;;12.87;100.00
47897;BME280;39629;51.400;5.494;2023-03-23T18:46:27;100072.75;;;12.92;100.00
47897;BME280;39629;51.400;5.494;2023-03-23T18:51:28;100062.66;;;12.73;100.00
47897;BME280;39629;51.400;5.494;2023-03-23T18:56:30;100053.84;;;12.73;100.00
47897;BME280;39629;51.400;5.494;2023-03-23T19:01:33;100063.66;;;12.68;100.00
47897;BME280;39629;51.400;5.494;2023-03-23T19:06:35;100064.94;;;12.87;100.00
47897;BME280;39629;51.400;5.494;2023-03-23T19:11:36;100058.22;;;12.74;100.00
47897;BME280;39629;51.400;5.494;2023-03-23T19:16:39;100051.88;;;12.81;100.00
47897;BME280;39629;51.400;5.494;2023-03-23T19:21:41;100049.19;;;12.84;100.00
47897;BME280;39629;51.400;5.494;2023-03-23T19:26:44;100040.50;;;12.79;100.00
47897;BME280;39629;51.400;5.494;2023-03-23T19:31:48;100031.91;;;12.71;100.00
47897;BME280;39629;51.400;5.494;2023-03-23T19:36:50;100024.28;;;12.94;100.00
47897;BME280;39629;51.400;5.494;2023-03-23T19:41:51;100021.50;;;12.99;100.00
47897;BME280;39629;51.400;5.494;2023-03-23T19:46:54;100013.13;;;12.83;100.00
47897;BME280;39629;51.400;5.494;2023-03-23T19:51:56;100017.34;;;12.90;100.00
47897;BME280;39629;51.400;5.494;2023-03-23T19:56:58;100023.66;;;12.85;100.00
47897;BME280;39629;51.400;5.494;2023-03-23T20:02:01;100009.16;;;12.65;100.00
47897;BME280;39629;51.400;5.494;2023-03-23T20:07:03;100010.75;;;12.72;100.00
47897;BME280;39629;51.400;5.494;2023-03-23T20:12:06;100005.78;;;12.60;100.00
47897;BME280;39629;51.400;5.494;2023-03-23T20:17:09;99999.88;;;12.49;100.00
47897;BME280;39629;51.400;5.494;2023-03-23T20:22:11;99999.72;;;12.55;100.00
47897;BME280;39629;51.400;5.494;2023-03-23T20:27:13;99978.75;;;12.50;100.00
47897;BME280;39629;51.400;5.494;2023-03-23T20:32:16;99985.03;;;12.43;100.00
47897;BME280;39629;51.400;5.494;2023-03-23T20:37:18;99976.06;;;12.52;100.00
47897;BME280;39629;51.400;5.494;2023-03-23T20:42:21;99977.31;;;12.35;100.00
47897;BME280;39629;51.400;5.494;2023-03-23T20:47:24;99974.19;;;12.19;100.00
47897;BME280;39629;51.400;5.494;2023-03-23T20:52:27;99985.69;;;12.15;100.00
47897;BME280;39629;51.400;5.494;2023-03-23T20:57:29;99979.03;;;11.99;100.00
47897;BME280;39629;51.400;5.494;2023-03-23T21:02:31;99963.88;;;12.08;100.00
47897;BME280;39629;51.400;5.494;2023-03-23T21:07:33;99957.00;;;12.01;100.00
47897;BME280;39629;51.400;5.494;2023-03-23T21:12:35;99965.03;;;11.97;100.00
47897;BME280;39629;51.400;5.494;2023-03-23T21:17:38;99949.53;;;11.81;100.00
47897;BME280;39629;51.400;5.494;2023-03-23T21:22:40;99952.03;;;11.87;100.00
47897;BME280;39629;51.400;5.494;2023-03-23T21:27:41;99952.13;;;11.84;100.00
47897;BME280;39629;51.400;5.494;2023-03-23T21:32:44;99958.41;;;11.79;100.00
47897;BME280;39629;51.400;5.494;2023-03-23T21:37:46;99954.88;;;11.78;100.00
47897;BME280;39629;51.400;5.494;2023-03-23T21:42:48;99942.81;;;11.68;100.00
47897;BME280;39629;51.400;5.494;2023-03-23T21:47:52;99936.09;;;11.53;100.00
47897;BME280;39629;51.400;5.494;2023-03-23T21:52:56;99927.59;;;11.40;100.00
47897;BME280;39629;51.400;5.494;2023-03-23T21:57:57;99932.19;;;11.30;100.00
47897;BME280;39629;51.400;5.494;2023-03-23T22:03:01;99925.22;;;11.28;100.00
47897;BME280;39629;51.400;5.494;2023-03-23T22:08:04;99913.06;;;11.20;100.00
47897;BME280;39629;51.400;5.494;2023-03-23T22:13:06;99908.66;;;11.21;100.00
47897;BME280;39629;51.400;5.494;2023-03-23T22:18:09;99902.06;;;11.00;100.00
47897;BME280;39629;51.400;5.494;2023-03-23T22:23:10;99889.88;;;10.96;100.00
47897;BME280;39629;51.400;5.494;2023-03-23T22:28:12;99883.72;;;10.95;100.00
47897;BME280;39629;51.400;5.494;2023-03-23T22:33:15;99869.72;;;10.93;100.00
47897;BME280;39629;51.400;5.494;2023-03-23T22:38:18;99869.88;;;10.85;100.00
47897;BME280;39629;51.400;5.494;2023-03-23T22:43:19;99857.59;;;10.86;100.00
47897;BME280;39629;51.400;5.494;2023-03-23T22:48:24;99850.56;;;10.86;100.00
47897;BME280;39629;51.400;5.494;2023-03-23T22:53:26;99855.00;;;10.83;100.00
47897;BME280;39629;51.400;5.494;2023-03-23T22:58:27;99839.19;;;10.84;100.00
47897;BME280;39629;51.400;5.494;2023-03-23T23:03:31;99832.91;;;10.92;100.00
47897;BME280;39629;51.400;5.494;2023-03-23T23:08:33;99825.97;;;10.87;100.00
47897;BME280;39629;51.400;5.494;2023-03-23T23:13:35;99825.97;;;10.87;100.00
47897;BME280;39629;51.400;5.494;2023-03-23T23:18:38;99810.03;;;10.94;100.00
47897;BME280;39629;51.400;5.494;2023-03-23T23:23:41;99803.84;;;10.96;100.00
47897;BME280;39629;51.400;5.494;2023-03-23T23:28:45;99805.47;;;11.02;100.00
47897;BME280;39629;51.400;5.494;2023-03-23T23:33:49;99787.84;;;11.07;100.00
47897;BME280;39629;51.400;5.494;2023-03-23T23:38:50;99790.34;;;11.12;100.00
47897;BME280;39629;51.400;5.494;2023-03-23T23:43:52;99784.09;;;11.17;100.00
47897;BME280;39629;51.400;5.494;2023-03-23T23:48:56;99775.28;;;11.18;100.00
47897;BME280;39629;51.400;5.494;2023-03-23T23:53:58;99765.56;;;11.22;100.00
47897;BME280;39629;51.400;5.494;2023-03-23T23:59:00;99761.16;;;11.22;100.00
